Time;durP1;ratioP1;P1;durP2;ratioP2;P2;SDS_P1;SDS_P2;PMS_P1;PMS_P2;Temp;Humidity;BMP_temperature;BMP_pressure;BME280_temperature;BME280_humidity;BME280_pressure;Samples;Min_cycle;Max_cycle;Signal;HPM_P1;HPM_P2
2021/07/24 00:01:54;;;;;;;10.02;6.80;;;25.60;59.40;;;;;;5075186;28;20078;-74
2021/07/24 00:04:19;;;;;;;9.20;7.03;;;25.60;69.60;;;;;;5074907;28;20028;-73
2021/07/24 00:06:45;;;;;;;9.95;6.82;;;25.50;58.50;;;;;;5074570;28;20032;-71
2021/07/24 00:09:12;;;;;;;10.38;7.07;;;25.50;58.60;;;;;;5074750;28;20025;-73
2021/07/24 00:11:37;;;;;;;11.82;7.00;;;25.50;61.80;;;;;;5074898;28;20035;-74
2021/07/24 00:14:03;;;;;;;14.23;7.18;;;25.60;65.80;;;;;;5074792;28;20033;-73
2021/07/24 00:16:29;;;;;;;7.97;7.15;;;25.50;64.50;;;;;;5074977;28;20032;-71
2021/07/24 00:18:55;;;;;;;7.82;6.70;;;25.60;61.50;;;;;;5074825;28;20021;-73
2021/07/24 00:21:21;;;;;;;8.43;7.10;;;25.60;65.20;;;;;;5074890;28;20075;-73
2021/07/24 00:23:46;;;;;;;11.13;7.35;;;25.60;68.20;;;;;;5074508;28;20005;-72
2021/07/24 00:26:15;;;;;;;10.55;7.07;;;25.60;69.90;;;;;;5074275;28;20091;-74
2021/07/24 00:28:41;;;;;;;7.88;6.30;;;25.50;62.80;;;;;;5074728;28;20373;-71
2021/07/24 00:31:07;;;;;;;9.57;7.03;;;25.50;63.80;;;;;;5074763;28;20031;-74
2021/07/24 00:33:33;;;;;;;9.18;6.70;;;25.50;65.60;;;;;;5074630;28;20016;-73
2021/07/24 00:35:59;;;;;;;8.75;6.93;;;25.50;70.60;;;;;;5074258;28;20024;-74
2021/07/24 00:38:25;;;;;;;9.80;6.97;;;25.50;68.70;;;;;;5073520;28;20021;-75
2021/07/24 00:40:59;;;;;;;7.20;6.50;;;25.50;68.80;;;;;;5074697;28;20027;-72
2021/07/24 00:43:34;;;;;;;8.75;6.43;;;25.50;69.20;;;;;;5074177;28;20489;-74
2021/07/24 00:46:02;;;;;;;8.02;7.15;;;25.50;61.70;;;;;;5074311;28;20043;-71
2021/07/24 00:48:28;;;;;;;10.15;6.72;;;25.40;65.20;;;;;;5074459;28;20024;-73
2021/07/24 00:50:57;;;;;;;9.40;7.40;;;25.50;64.60;;;;;;5074151;28;20032;-71
2021/07/24 00:53:24;;;;;;;10.18;6.25;;;25.50;66.50;;;;;;5074430;28;20013;-71
2021/07/24 00:55:51;;;;;;;8.32;6.70;;;25.40;59.10;;;;;;5074627;28;20145;-71
2021/07/24 00:58:30;;;;;;;8.68;6.88;;;25.40;61.20;;;;;;5072765;28;20021;-73
2021/07/24 01:00:56;;;;;;;10.52;6.88;;;25.40;65.40;;;;;;5071563;28;20085;-71
2021/07/24 01:03:22;;;;;;;9.20;7.00;;;25.30;70.50;;;;;;5071366;28;20099;-71
2021/07/24 01:05:51;;;;;;;8.57;7.00;;;25.30;58.60;;;;;;5073248;28;20035;-73
2021/07/24 01:08:17;;;;;;;13.20;6.45;;;;;;;;;;5073817;28;20024;-71
2021/07/24 01:10:44;;;;;;;8.02;6.82;;;25.40;75.90;;;;;;5072207;28;20530;-73
2021/07/24 01:13:10;;;;;;;7.72;6.93;;;;;;;;;;5073462;28;20070;-73
2021/07/24 01:15:35;;;;;;;9.98;7.35;;;25.20;75.90;;;;;;5073667;28;20038;-73
2021/07/24 01:18:02;;;;;;;11.75;7.40;;;;;;;;;;5073379;28;20025;-73
2021/07/24 01:20:28;;;;;;;9.52;7.50;;;25.10;59.70;;;;;;5073225;28;20029;-71
2021/07/24 01:22:55;;;;;;;10.95;7.20;;;25.00;60.30;;;;;;5073679;28;20070;-72
2021/07/24 01:25:21;;;;;;;10.13;7.43;;;25.10;72.10;;;;;;5071750;28;20047;-74
2021/07/24 01:27:47;;;;;;;9.32;6.80;;;25.00;62.50;;;;;;5073136;28;20480;-74
2021/07/24 01:30:13;;;;;;;8.55;6.50;;;25.00;66.60;;;;;;5073434;28;20081;-74
2021/07/24 01:32:39;;;;;;;7.45;6.75;;;25.00;69.20;;;;;;5073565;28;20025;-74
2021/07/24 01:35:06;;;;;;;9.38;6.93;;;24.90;59.90;;;;;;5072960;28;20469;-75
2021/07/24 01:37:31;;;;;;;9.18;7.13;;;24.90;59.80;;;;;;5072851;28;20028;-73
2021/07/24 01:39:57;;;;;;;9.57;7.22;;;24.90;59.70;;;;;;5073032;28;20032;-71
2021/07/24 01:42:23;;;;;;;7.47;6.78;;;24.90;59.70;;;;;;5073318;28;20024;-72
2021/07/24 01:44:48;;;;;;;9.68;7.30;;;24.90;74.40;;;;;;5072570;28;20039;-74
2021/07/24 01:47:14;;;;;;;10.30;7.40;;;24.90;72.60;;;;;;5072772;28;20060;-73
2021/07/24 01:52:46;;;;;;;12.10;7.35;;;25.00;80.10;;;;;;5073478;28;20051;-73
2021/07/24 01:55:17;;;;;;;12.32;7.07;;;25.00;62.60;;;;;;5073146;28;20021;-71
2021/07/24 01:57:47;;;;;;;8.23;7.30;;;25.00;68.60;;;;;;5072788;28;20032;-70
2021/07/24 02:00:13;;;;;;;9.95;7.38;;;;;;;;;;5072803;28;20491;-72
2021/07/24 02:02:40;;;;;;;7.97;6.82;;;24.80;59.30;;;;;;5073038;28;20036;-71
2021/07/24 02:05:12;;;;;;;9.82;7.40;;;24.90;60.40;;;;;;5072678;28;20028;-73
2021/07/24 02:07:43;;;;;;;8.10;7.05;;;24.80;64.20;;;;;;5071777;28;20029;-73
2021/07/24 02:10:09;;;;;;;8.73;7.25;;;24.80;66.10;;;;;;5072730;28;20078;-70
2021/07/24 02:12:36;;;;;;;10.38;7.10;;;24.80;63.30;;;;;;5073119;28;20036;-70
2021/07/24 02:15:02;;;;;;;8.52;7.07;;;24.90;69.30;;;;;;5072943;28;20107;-70
2021/07/24 02:17:31;;;;;;;9.95;7.65;;;24.80;66.30;;;;;;5072882;28;20423;-73
2021/07/24 02:20:02;;;;;;;10.48;7.68;;;;;;;;;;5072823;28;20032;-72
2021/07/24 02:22:28;;;;;;;11.95;7.78;;;;;;;;;;5072876;28;20541;-71
2021/07/24 02:24:54;;;;;;;17.20;8.27;;;24.80;84.80;;;;;;5072243;28;20079;-73
2021/07/24 02:27:20;;;;;;;13.80;7.68;;;24.70;63.40;;;;;;5072734;28;20044;-71
2021/07/24 02:29:46;;;;;;;14.50;8.35;;;24.60;61.90;;;;;;5072628;28;20736;-73
2021/07/24 02:32:11;;;;;;;11.98;7.82;;;24.50;62.00;;;;;;5072485;28;20028;-73
2021/07/24 02:34:37;;;;;;;11.68;7.80;;;24.50;62.00;;;;;;5072635;28;20021;-71
2021/07/24 02:37:03;;;;;;;12.50;7.68;;;24.50;63.60;;;;;;5072724;28;20024;-73
2021/07/24 02:39:28;;;;;;;13.18;8.27;;;24.50;67.90;;;;;;5072532;28;20032;-71
2021/07/24 02:41:54;;;;;;;9.98;7.88;;;24.50;70.00;;;;;;5072640;28;20484;-75
2021/07/24 02:44:20;;;;;;;9.23;7.93;;;24.50;70.80;;;;;;5072121;28;20370;-70
2021/07/24 02:46:45;;;;;;;9.10;7.93;;;24.30;62.80;;;;;;5072358;28;20040;-71
2021/07/24 02:49:12;;;;;;;14.93;8.30;;;24.20;62.90;;;;;;5072281;28;20491;-71
2021/07/24 02:51:38;;;;;;;10.48;7.57;;;;;;;;;;5072481;28;20093;-73
2021/07/24 02:54:04;;;;;;;10.90;8.73;;;;;;;;;;5071023;28;20415;-71
2021/07/24 02:56:30;;;;;;;12.68;7.63;;;;;;;;;;5072559;28;20055;-74
2021/07/24 02:58:55;;;;;;;10.10;7.88;;;24.20;64.60;;;;;;5072631;28;20035;-74
2021/07/24 03:01:21;;;;;;;10.18;8.10;;;;;;;;;;5072174;28;20472;-71
2021/07/24 03:03:47;;;;;;;11.82;8.80;;;24.10;63.20;;;;;;5072384;28;20078;-73
2021/07/24 03:06:13;;;;;;;11.27;8.60;;;24.10;63.60;;;;;;5072380;28;20028;-73
2021/07/24 03:08:38;;;;;;;12.32;8.20;;;24.00;63.50;;;;;;5072744;28;20024;-71
2021/07/24 03:11:04;;;;;;;13.57;8.20;;;24.00;63.70;;;;;;5072205;28;20096;-72
2021/07/24 03:13:30;;;;;;;11.38;8.70;;;24.10;73.10;;;;;;5072016;28;20048;-72
2021/07/24 03:15:56;;;;;;;8.57;7.68;;;24.00;75.40;;;;;;5071448;28;20032;-71
2021/07/24 03:18:22;;;;;;;12.82;7.68;;;24.00;71.30;;;;;;5071692;28;20078;-73
2021/07/24 03:20:48;;;;;;;10.80;7.65;;;23.80;64.20;;;;;;5072152;28;20031;-71
2021/07/24 03:23:13;;;;;;;10.52;7.97;;;23.90;64.40;;;;;;5072324;28;20104;-69
2021/07/24 03:25:42;;;;;;;14.93;8.65;;;23.80;64.40;;;;;;5071737;28;20080;-72
2021/07/24 03:28:08;;;;;;;12.23;8.00;;;23.80;64.30;;;;;;5072171;28;20024;-71
2021/07/24 03:30:34;;;;;;;8.95;7.30;;;23.80;64.30;;;;;;5072067;28;20025;-73
2021/07/24 03:32:59;;;;;;;19.08;8.07;;;23.80;64.00;;;;;;5072772;28;20400;-74
2021/07/24 03:35:25;;;;;;;10.68;8.18;;;23.80;63.90;;;;;;5075579;28;20469;-72
2021/07/24 03:37:51;;;;;;;9.43;7.45;;;23.90;68.10;;;;;;5075398;28;20059;-72
2021/07/24 03:40:16;;;;;;;8.40;7.60;;;23.90;68.10;;;;;;5075640;28;20020;-74
2021/07/24 03:42:42;;;;;;;13.00;7.68;;;23.90;63.70;;;;;;5075681;28;20025;-73
2021/07/24 03:45:08;;;;;;;8.93;7.90;;;23.90;63.30;;;;;;5075129;28;20028;-71
2021/07/24 03:47:34;;;;;;;8.65;7.75;;;24.00;64.20;;;;;;5075669;28;20028;-73
2021/07/24 03:49:59;;;;;;;9.07;7.82;;;24.00;63.50;;;;;;5075544;28;20027;-70
2021/07/24 03:52:25;;;;;;;10.80;8.00;;;24.10;63.70;;;;;;5075245;28;20024;-70
2021/07/24 03:54:51;;;;;;;11.07;8.13;;;24.10;65.30;;;;;;5075393;28;20070;-70
2021/07/24 03:57:16;;;;;;;12.18;7.93;;;23.90;63.80;;;;;;5075285;28;20031;-70
2021/07/24 03:59:42;;;;;;;13.75;8.50;;;24.10;65.60;;;;;;5075125;28;20028;-72
2021/07/24 04:02:12;;;;;;;15.75;7.97;;;24.00;65.60;;;;;;5074899;28;20472;-71
2021/07/24 04:04:38;;;;;;;12.50;8.15;;;24.00;64.90;;;;;;5075173;28;20560;-71
2021/07/24 04:07:04;;;;;;;11.68;8.52;;;23.90;64.30;;;;;;5075217;28;20107;-72
2021/07/24 04:09:32;;;;;;;8.63;7.47;;;23.90;66.00;;;;;;5075211;28;20108;-70
2021/07/24 04:11:58;;;;;;;13.30;8.07;;;23.90;64.40;;;;;;5075035;28;20024;-70
2021/07/24 04:14:25;;;;;;;12.55;7.47;;;23.90;66.70;;;;;;5074622;28;20032;-71
2021/07/24 04:16:52;;;;;;;11.18;8.38;;;23.90;65.00;;;;;;5075121;28;20024;-70
2021/07/24 04:19:17;;;;;;;13.00;8.40;;;23.90;68.30;;;;;;5075149;28;20036;-70
2021/07/24 04:21:43;;;;;;;19.63;8.15;;;23.90;66.00;;;;;;5074937;28;20035;-70
2021/07/24 04:24:09;;;;;;;18.90;9.18;;;23.90;66.20;;;;;;5074500;28;20048;-70
2021/07/24 04:26:35;;;;;;;12.85;8.48;;;23.80;64.60;;;;;;5074657;28;20500;-74
2021/07/24 04:29:00;;;;;;;10.10;8.38;;;23.80;64.70;;;;;;5074762;28;20107;-71
2021/07/24 04:31:26;;;;;;;13.40;8.15;;;23.80;64.80;;;;;;5074779;28;20020;-73
2021/07/24 04:33:52;;;;;;;14.43;8.27;;;23.80;65.00;;;;;;5074671;28;20024;-71
2021/07/24 04:36:17;;;;;;;11.30;8.25;;;23.80;65.00;;;;;;5073486;28;20071;-72
2021/07/24 04:38:43;;;;;;;12.15;8.68;;;23.80;65.20;;;;;;5074628;28;20024;-70
2021/07/24 04:41:09;;;;;;;13.73;8.95;;;23.80;65.30;;;;;;5074528;28;20392;-69
2021/07/24 04:43:34;;;;;;;9.10;8.18;;;23.80;65.00;;;;;;5074314;28;20017;-69
2021/07/24 04:46:00;;;;;;;13.85;8.00;;;23.80;65.10;;;;;;5074502;28;20039;-70
2021/07/24 04:48:26;;;;;;;13.52;8.30;;;23.80;65.10;;;;;;5074228;28;20053;-69
2021/07/24 04:50:54;;;;;;;11.98;8.23;;;23.90;65.10;;;;;;5071678;28;20392;-70
2021/07/24 04:53:21;;;;;;;15.10;8.40;;;23.80;65.00;;;;;;5071213;28;20476;-70
2021/07/24 04:55:47;;;;;;;9.90;8.02;;;23.90;65.40;;;;;;5072552;28;20020;-69
2021/07/24 04:58:14;;;;;;;11.02;8.30;;;23.90;65.70;;;;;;5073965;28;20362;-70
2021/07/24 05:00:45;;;;;;;9.63;7.95;;;23.80;65.00;;;;;;5074209;28;20020;-69
2021/07/24 05:03:15;;;;;;;15.77;8.45;;;23.80;65.00;;;;;;5073903;28;20025;-69
2021/07/24 05:05:42;;;;;;;13.10;8.00;;;23.90;64.90;;;;;;5073965;28;20031;-70
2021/07/24 05:08:11;;;;;;;16.25;8.73;;;23.80;64.80;;;;;;5074110;28;20028;-70
2021/07/24 05:10:40;;;;;;;20.00;8.55;;;23.80;64.90;;;;;;5073930;28;20025;-69
2021/07/24 05:13:06;;;;;;;15.30;8.82;;;23.80;65.00;;;;;;5073783;28;20426;-69
2021/07/24 05:15:32;;;;;;;14.95;8.50;;;23.80;65.10;;;;;;5073968;28;20052;-69
2021/07/24 05:17:58;;;;;;;14.98;8.10;;;23.80;65.40;;;;;;5073760;28;20035;-69
2021/07/24 05:20:28;;;;;;;17.60;8.60;;;23.80;65.40;;;;;;5073619;28;20036;-68
2021/07/24 05:22:54;;;;;;;16.98;8.80;;;23.80;65.70;;;;;;5073450;28;20016;-69
2021/07/24 05:25:19;;;;;;;16.48;9.13;;;23.80;66.20;;;;;;5072940;28;20048;-69
2021/07/24 05:27:45;;;;;;;10.45;8.85;;;23.80;66.20;;;;;;5073462;28;20032;-70
2021/07/24 05:30:11;;;;;;;10.00;7.97;;;23.80;66.10;;;;;;5073644;28;20119;-70
2021/07/24 05:32:37;;;;;;;11.68;8.07;;;23.90;66.00;;;;;;5073016;28;20469;-70
2021/07/24 05:35:03;;;;;;;8.90;7.95;;;23.90;66.00;;;;;;5073397;28;20023;-69
2021/07/24 05:37:29;;;;;;;12.23;7.90;;;;;;;;;;5073196;28;20052;-70
2021/07/24 05:39:55;;;;;;;9.93;8.07;;;23.90;65.80;;;;;;5073416;28;20039;-69
2021/07/24 05:42:21;;;;;;;8.60;7.57;;;24.10;66.40;;;;;;5073343;28;20024;-69
2021/07/24 05:44:46;;;;;;;9.90;7.90;;;24.10;65.40;;;;;;5073343;28;20028;-70
2021/07/24 05:47:12;;;;;;;11.82;7.75;;;24.10;65.20;;;;;;5073053;28;20399;-71
2021/07/24 05:49:38;;;;;;;10.10;8.10;;;24.10;65.00;;;;;;5073183;28;20071;-70
2021/07/24 05:52:08;;;;;;;12.68;7.47;;;24.20;64.70;;;;;;5073300;28;20036;-70
2021/07/24 05:54:35;;;;;;;8.82;6.88;;;24.20;64.30;;;;;;5073306;28;20034;-69
2021/07/24 05:57:01;;;;;;;8.98;7.57;;;24.20;64.20;;;;;;5072797;28;20070;-70
2021/07/24 05:59:27;;;;;;;9.95;8.25;;;24.30;64.00;;;;;;5072612;28;20024;-71
2021/07/24 06:01:52;;;;;;;17.40;8.15;;;24.30;64.00;;;;;;5072507;28;20108;-73
2021/07/24 06:04:18;;;;;;;16.45;8.13;;;24.40;63.70;;;;;;5072354;28;20024;-70
2021/07/24 06:06:44;;;;;;;10.95;8.45;;;24.40;63.60;;;;;;5071635;28;20115;-72
2021/07/24 06:09:09;;;;;;;10.38;7.97;;;24.40;63.40;;;;;;5072050;28;20067;-73
2021/07/24 06:11:35;;;;;;;8.40;7.15;;;24.50;63.00;;;;;;5071883;28;20024;-71
2021/07/24 06:14:01;;;;;;;8.70;7.60;;;24.50;63.00;;;;;;5071275;28;20021;-71
2021/07/24 06:16:26;;;;;;;9.00;7.88;;;24.60;63.10;;;;;;5071566;28;20028;-71
2021/07/24 06:18:52;;;;;;;9.07;7.55;;;24.60;63.30;;;;;;5072589;28;20025;-73
2021/07/24 06:21:18;;;;;;;9.02;7.93;;;24.60;63.40;;;;;;5071967;28;20032;-71
2021/07/24 06:23:44;;;;;;;14.75;8.23;;;24.80;75.10;;;;;;5071137;28;20051;-73
2021/07/24 06:26:10;;;;;;;9.52;8.38;;;24.80;77.00;;;;;;5071657;28;20053;-72
2021/07/24 06:28:36;;;;;;;12.15;8.88;;;24.90;74.90;;;;;;5071844;28;20021;-71
2021/07/24 06:31:05;;;;;;;12.05;7.60;;;24.90;79.50;;;;;;5072912;28;20134;-73
2021/07/24 06:33:32;;;;;;;11.60;7.80;;;25.00;81.40;;;;;;5073164;28;20027;-71
2021/07/24 06:36:02;;;;;;;11.05;8.07;;;25.00;75.00;;;;;;5072971;28;20035;-73
2021/07/24 06:38:28;;;;;;;10.65;8.07;;;25.10;79.80;;;;;;5072854;28;20021;-72
2021/07/24 06:40:54;;;;;;;11.10;8.05;;;25.10;65.10;;;;;;5073129;28;20489;-72
2021/07/24 06:43:20;;;;;;;12.23;7.43;;;25.10;63.00;;;;;;5073549;28;20365;-72
2021/07/24 06:45:47;;;;;;;8.93;7.78;;;25.10;62.20;;;;;;5072909;28;20103;-71
2021/07/24 06:48:13;;;;;;;10.93;7.82;;;25.10;62.00;;;;;;5073010;28;20048;-72
2021/07/24 06:50:39;;;;;;;8.13;7.32;;;;;;;;;;5073027;28;20476;-70
2021/07/24 06:53:05;;;;;;;8.85;7.63;;;;;;;;;;5072750;28;20025;-72
2021/07/24 06:55:31;;;;;;;9.52;7.95;;;;;;;;;;5072637;28;20086;-72
2021/07/24 06:58:03;;;;;;;8.73;7.78;;;;;;;;;;5072902;28;20025;-72
2021/07/24 07:00:32;;;;;;;10.70;7.53;;;25.50;92.00;;;;;;5072796;28;20028;-69
2021/07/24 07:02:59;;;;;;;10.82;7.43;;;;;;;;;;5072764;28;20489;-70
2021/07/24 07:05:29;;;;;;;11.23;8.35;;;25.50;85.10;;;;;;5072421;28;20028;-70
2021/07/24 07:07:54;;;;;;;12.07;7.80;;;25.70;73.10;;;;;;5073546;28;20032;-69
2021/07/24 07:10:21;;;;;;;11.73;7.15;;;25.70;65.20;;;;;;5076915;28;20468;-70
2021/07/24 07:12:47;;;;;;;9.77;7.65;;;;;;;;;;5076508;28;20035;-70
2021/07/24 07:15:12;;;;;;;12.73;7.68;;;25.80;88.60;;;;;;5076136;28;20028;-70
2021/07/24 07:17:38;;;;;;;11.45;7.38;;;25.90;74.50;;;;;;5076601;28;20032;-70
2021/07/24 07:20:06;;;;;;;14.75;7.88;;;25.80;59.70;;;;;;5076637;28;20039;-70
2021/07/24 07:22:32;;;;;;;8.75;7.32;;;;;;;;;;5076453;28;20039;-70
2021/07/24 07:24:58;;;;;;;13.75;8.18;;;26.00;91.80;;;;;;5076007;28;20024;-70
2021/07/24 07:27:24;;;;;;;9.35;7.80;;;26.10;73.00;;;;;;5076015;28;20037;-70
2021/07/24 07:29:50;;;;;;;9.75;7.25;;;26.20;69.30;;;;;;5076223;28;20025;-70
2021/07/24 07:32:15;;;;;;;13.05;7.78;;;26.20;79.70;;;;;;5076051;28;20066;-70
2021/07/24 07:34:41;;;;;;;9.15;7.40;;;26.30;83.00;;;;;;5076127;28;20012;-69
2021/07/24 07:37:07;;;;;;;9.73;7.57;;;;;;;;;;5076128;28;20025;-70
2021/07/24 07:39:33;;;;;;;11.75;7.65;;;26.30;89.70;;;;;;5076137;28;20056;-70
2021/07/24 07:41:58;;;;;;;9.63;8.02;;;26.30;59.50;;;;;;5075902;28;20056;-71
2021/07/24 07:44:24;;;;;;;12.45;7.90;;;26.40;65.80;;;;;;5075847;28;20040;-70
2021/07/24 07:46:53;;;;;;;12.05;8.23;;;26.40;58.30;;;;;;5075536;28;20089;-70
2021/07/24 07:49:19;;;;;;;11.65;8.15;;;26.40;58.00;;;;;;5075906;28;20024;-70
2021/07/24 07:51:45;;;;;;;9.70;7.85;;;26.50;58.30;;;;;;5076042;28;20070;-69
2021/07/24 07:54:11;;;;;;;8.85;7.68;;;26.50;58.60;;;;;;5075651;28;20024;-70
2021/07/24 07:56:37;;;;;;;12.40;7.85;;;26.60;58.70;;;;;;5075672;28;20020;-71
2021/07/24 07:59:04;;;;;;;13.93;8.23;;;;;;;;;;5075785;28;20021;-71
2021/07/24 08:01:29;;;;;;;11.00;7.78;;;26.70;88.10;;;;;;5075529;28;20098;-71
2021/07/24 08:03:55;;;;;;;10.30;8.38;;;;;;;;;;5075488;28;20083;-70
2021/07/24 08:06:21;;;;;;;10.50;7.90;;;27.00;78.50;;;;;;5075440;28;20485;-70
2021/07/24 08:08:47;;;;;;;15.20;8.32;;;26.90;76.00;;;;;;5075288;28;20059;-73
2021/07/24 08:11:14;;;;;;;13.63;7.43;;;26.80;57.70;;;;;;5075575;28;20365;-71
2021/07/24 08:13:40;;;;;;;10.00;8.00;;;26.80;57.70;;;;;;5075265;28;20419;-71
2021/07/24 08:16:13;;;;;;;12.95;8.13;;;26.90;62.40;;;;;;5075232;28;20169;-70
2021/07/24 08:18:39;;;;;;;9.48;7.88;;;27.00;65.70;;;;;;5074856;28;20033;-70
2021/07/24 08:21:05;;;;;;;10.23;7.47;;;27.00;56.90;;;;;;5075551;28;20350;-70
2021/07/24 08:23:30;;;;;;;10.25;8.10;;;27.00;56.50;;;;;;5075315;28;20040;-70
2021/07/24 08:25:56;;;;;;;10.73;7.88;;;27.10;56.50;;;;;;5074769;28;20036;-70
2021/07/24 08:28:26;;;;;;;12.63;7.43;;;27.10;56.70;;;;;;5075208;28;20020;-72
2021/07/24 08:30:51;;;;;;;10.82;7.93;;;27.20;60.20;;;;;;5075248;28;20373;-70
2021/07/24 08:33:17;;;;;;;12.60;8.13;;;27.30;58.60;;;;;;5075050;28;20035;-72
2021/07/24 08:35:43;;;;;;;9.23;6.90;;;27.40;61.40;;;;;;5073561;28;20193;-70
2021/07/24 08:38:09;;;;;;;12.15;7.93;;;27.40;56.50;;;;;;5074695;28;20028;-72
2021/07/24 08:40:35;;;;;;;11.45;8.00;;;27.50;57.50;;;;;;5074878;28;20025;-71
2021/07/24 08:43:04;;;;;;;12.20;7.53;;;27.60;60.90;;;;;;5074651;28;20025;-70
2021/07/24 08:45:31;;;;;;;13.45;7.80;;;27.60;62.00;;;;;;5074837;28;20032;-72
2021/07/24 08:48:02;;;;;;;12.05;8.50;;;27.70;62.50;;;;;;5074700;28;20063;-70
2021/07/24 08:50:28;;;;;;;18.67;7.75;;;27.70;55.80;;;;;;5074851;28;20020;-70
2021/07/24 08:52:55;;;;;;;8.80;7.72;;;27.80;56.00;;;;;;5074771;28;20031;-71
2021/07/24 08:55:23;;;;;;;9.52;7.63;;;27.80;55.30;;;;;;5074641;28;20392;-72
2021/07/24 08:57:51;;;;;;;8.95;7.38;;;27.80;55.50;;;;;;5074618;28;20191;-70
2021/07/24 09:00:18;;;;;;;11.48;7.20;;;27.90;55.40;;;;;;5074357;28;20013;-71
2021/07/24 09:02:46;;;;;;;20.75;8.20;;;28.00;55.00;;;;;;5074535;28;20020;-71
2021/07/24 09:05:13;;;;;;;11.07;7.43;;;28.10;54.60;;;;;;5074418;28;20020;-70
2021/07/24 09:07:47;;;;;;;9.90;7.88;;;28.20;54.10;;;;;;5074603;28;20036;-71
2021/07/24 09:10:14;;;;;;;10.85;7.75;;;28.20;53.70;;;;;;5074374;28;20028;-70
2021/07/24 09:12:41;;;;;;;9.45;7.50;;;28.30;53.40;;;;;;5073904;28;20028;-70
2021/07/24 09:15:09;;;;;;;13.00;7.97;;;28.30;53.60;;;;;;5074355;28;20027;-70
2021/07/24 09:17:35;;;;;;;16.02;7.60;;;28.40;53.40;;;;;;5074345;28;20024;-70
2021/07/24 09:20:02;;;;;;;10.48;7.72;;;28.50;53.30;;;;;;5073937;28;20107;-70
2021/07/24 09:22:30;;;;;;;10.88;7.20;;;28.50;52.60;;;;;;5073927;28;20029;-70
2021/07/24 09:25:12;;;;;;;13.65;7.45;;;28.50;52.90;;;;;;5073662;28;20059;-70
2021/07/24 09:27:41;;;;;;;15.50;7.32;;;28.60;52.50;;;;;;5073949;28;20059;-70
2021/07/24 09:30:28;;;;;;;9.40;6.90;;;28.60;53.20;;;;;;5073813;28;20411;-70
2021/07/24 09:33:12;;;;;;;8.98;6.57;;;28.70;52.70;;;;;;5072738;28;20024;-70
2021/07/24 09:35:41;;;;;;;16.40;6.85;;;;;;;;;;5073342;28;20489;-71
2021/07/24 09:38:27;;;;;;;9.68;7.15;;;28.80;52.60;;;;;;5073746;28;20028;-70
2021/07/24 09:40:54;;;;;;;13.55;7.15;;;28.90;52.10;;;;;;5073797;28;20115;-71
2021/07/24 09:43:41;;;;;;;8.82;6.78;;;28.90;51.70;;;;;;5073714;28;20473;-71
2021/07/24 09:46:22;;;;;;;10.73;7.07;;;28.90;51.50;;;;;;5073525;28;20480;-71
2021/07/24 09:48:52;;;;;;;8.38;7.22;;;29.00;51.40;;;;;;5073891;28;20040;-71
2021/07/24 09:51:36;;;;;;;11.30;7.50;;;29.10;52.60;;;;;;5073713;28;20119;-70
2021/07/24 09:54:04;;;;;;;13.68;7.22;;;27.40;62.30;;;;;;5073495;28;20025;-70
2021/07/24 09:56:43;;;;;;;11.90;7.38;;;29.30;65.70;;;;;;5073520;28;20040;-70
2021/07/24 09:59:21;;;;;;;16.75;7.75;;;29.30;52.30;;;;;;5072125;28;20393;-70
2021/07/24 10:01:56;;;;;;;12.82;7.88;;;29.40;52.00;;;;;;5073381;28;20353;-71
2021/07/24 10:04:32;;;;;;;8.38;7.35;;;29.50;52.20;;;;;;5072099;28;20033;-70
2021/07/24 10:07:00;;;;;;;12.93;8.48;;;29.60;52.00;;;;;;5073496;28;20385;-70
2021/07/24 10:09:29;;;;;;;15.10;7.53;;;29.60;51.70;;;;;;5073290;28;20052;-71
2021/07/24 10:11:58;;;;;;;11.73;7.80;;;29.70;51.20;;;;;;5073124;28;20209;-70
2021/07/24 10:14:25;;;;;;;9.60;7.10;;;29.60;50.30;;;;;;5073254;28;20016;-71
2021/07/24 10:16:52;;;;;;;12.25;8.10;;;29.60;50.50;;;;;;5073227;28;20029;-70
2021/07/24 10:19:19;;;;;;;9.55;7.57;;;29.70;51.40;;;;;;5073228;28;20024;-71
2021/07/24 10:21:46;;;;;;;9.55;7.60;;;29.70;52.30;;;;;;5073007;28;20548;-70
2021/07/24 10:24:12;;;;;;;15.35;7.60;;;29.80;50.70;;;;;;5073100;28;20522;-70
2021/07/24 10:26:39;;;;;;;17.25;8.13;;;29.80;50.40;;;;;;5071629;28;20040;-71
2021/07/24 10:29:10;;;;;;;13.30;7.25;;;29.90;50.20;;;;;;5073206;28;20554;-71
2021/07/24 10:31:47;;;;;;;10.80;6.70;;;29.90;50.30;;;;;;5073261;28;20025;-71
2021/07/24 10:34:14;;;;;;;9.30;6.90;;;30.00;50.10;;;;;;5073066;28;20020;-71
2021/07/24 10:36:43;;;;;;;13.35;6.97;;;30.10;49.10;;;;;;5073107;28;20408;-70
2021/07/24 10:39:17;;;;;;;8.73;6.38;;;30.10;49.00;;;;;;5073159;28;20028;-71
2021/07/24 10:41:47;;;;;;;13.15;6.88;;;30.10;48.00;;;;;;5073172;28;20048;-71
2021/07/24 10:44:15;;;;;;;9.82;6.57;;;30.20;46.80;;;;;;5077201;28;20027;-71
2021/07/24 10:46:44;;;;;;;12.35;6.65;;;30.20;47.00;;;;;;5076923;28;20041;-72
2021/07/24 10:49:22;;;;;;;11.93;6.80;;;30.30;47.70;;;;;;5077346;28;20021;-70
2021/07/24 10:51:58;;;;;;;12.45;6.70;;;30.20;47.20;;;;;;5077345;28;20111;-71
2021/07/24 10:54:25;;;;;;;12.70;6.90;;;30.30;48.00;;;;;;5077092;28;20017;-71
2021/07/24 10:56:52;;;;;;;15.50;7.63;;;30.30;48.30;;;;;;5076888;28;20107;-71
2021/07/24 10:59:18;;;;;;;10.25;6.20;;;30.30;48.20;;;;;;5076847;28;20469;-70
2021/07/24 11:01:52;;;;;;;11.90;6.95;;;30.30;48.90;;;;;;5076976;28;20036;-70
2021/07/24 11:04:38;;;;;;;13.00;6.78;;;30.40;48.30;;;;;;5076928;28;20042;-70
2021/07/24 11:07:13;;;;;;;11.02;7.35;;;30.50;47.30;;;;;;5076666;28;20037;-70
2021/07/24 11:09:43;;;;;;;9.35;6.90;;;30.50;47.30;;;;;;5076392;28;20103;-70
2021/07/24 11:12:16;;;;;;;13.82;7.10;;;30.40;47.60;;;;;;5076911;28;20032;-70
2021/07/24 11:14:49;;;;;;;11.20;6.85;;;30.30;48.40;;;;;;5072961;28;20472;-70
2021/07/24 11:17:18;;;;;;;14.90;6.97;;;30.40;48.20;;;;;;5073574;28;20110;-71
2021/07/24 11:19:44;;;;;;;15.57;6.93;;;30.40;48.60;;;;;;5076071;28;20104;-70
2021/07/24 11:22:16;;;;;;;10.95;6.78;;;30.30;48.90;;;;;;5076267;28;20112;-70
2021/07/24 11:24:51;;;;;;;8.48;6.65;;;30.30;50.10;;;;;;5076478;28;20095;-70
2021/07/24 11:27:37;;;;;;;10.93;7.13;;;30.30;50.80;;;;;;5074901;28;20451;-71
2021/07/24 11:30:02;;;;;;;16.33;7.72;;;30.30;49.50;;;;;;5076000;28;20119;-70
2021/07/24 11:32:33;;;;;;;13.27;7.10;;;30.30;50.00;;;;;;5076066;28;20080;-71
2021/07/24 11:35:05;;;;;;;11.88;7.80;;;30.30;50.30;;;;;;5075880;28;20024;-70
2021/07/24 11:37:47;;;;;;;15.43;7.45;;;30.30;51.10;;;;;;5075309;28;20016;-71
2021/07/24 11:40:15;;;;;;;10.00;7.10;;;30.40;51.70;;;;;;5073149;28;20028;-71
2021/07/24 11:42:42;;;;;;;13.93;7.35;;;30.40;51.80;;;;;;5073402;28;20036;-71
2021/07/24 11:45:08;;;;;;;11.18;7.60;;;30.50;50.40;;;;;;5074558;28;20020;-70
2021/07/24 11:47:34;;;;;;;10.80;7.85;;;30.50;50.60;;;;;;5075832;28;20037;-70
2021/07/24 11:50:22;;;;;;;10.05;8.05;;;30.60;50.30;;;;;;5075609;28;20028;-71
2021/07/24 11:53:01;;;;;;;8.05;6.45;;;30.60;49.40;;;;;;5075315;28;20033;-71
2021/07/24 11:55:54;;;;;;;12.43;7.45;;;30.60;49.50;;;;;;5075282;28;20036;-71
2021/07/24 11:58:44;;;;;;;8.45;6.63;;;30.70;48.60;;;;;;5075747;28;20020;-71
2021/07/24 12:01:41;;;;;;;7.82;6.00;;;30.80;48.70;;;;;;5075190;28;20476;-71
2021/07/24 12:04:39;;;;;;;8.73;6.75;;;30.80;48.50;;;;;;5075406;28;20381;-71
2021/07/24 12:07:44;;;;;;;8.93;6.38;;;30.90;47.70;;;;;;5074916;28;20413;-71
2021/07/24 12:10:22;;;;;;;10.77;6.25;;;30.90;48.30;;;;;;5075399;28;20380;-71
2021/07/24 12:12:57;;;;;;;13.65;7.28;;;31.00;48.70;;;;;;5075298;28;20017;-71
2021/07/24 12:16:05;;;;;;;12.48;7.07;;;31.00;47.40;;;;;;5074970;28;20024;-71
2021/07/24 12:19:14;;;;;;;8.82;6.95;;;31.10;46.90;;;;;;5075152;28;20472;-72
2021/07/24 12:22:02;;;;;;;10.98;6.75;;;31.10;46.70;;;;;;5033301;28;20078;-70
2021/07/24 12:25:03;;;;;;;9.45;7.25;;;31.10;46.70;;;;;;5074210;28;20028;-71
2021/07/24 12:27:29;;;;;;;13.38;7.38;;;31.10;46.60;;;;;;5072222;28;20048;-70
2021/07/24 12:30:27;;;;;;;10.65;7.10;;;31.10;45.80;;;;;;5073601;28;20024;-72
2021/07/24 12:32:56;;;;;;;7.82;6.45;;;31.10;45.80;;;;;;5061624;28;20165;-72
2021/07/24 12:35:37;;;;;;;11.50;7.13;;;31.10;46.20;;;;;;5074803;28;20578;-72
2021/07/24 12:38:35;;;;;;;12.95;6.97;;;31.10;45.90;;;;;;5073008;28;20388;-72
2021/07/24 12:41:35;;;;;;;15.68;7.57;;;31.10;45.80;;;;;;5067387;28;20370;-72
2021/07/24 12:47:54;;;;;;;13.77;6.97;;;31.20;45.70;;;;;;5074547;28;20055;-72
2021/07/24 12:50:23;;;;;;;10.93;7.15;;;31.30;46.40;;;;;;5010017;28;20485;-72
2021/07/24 12:52:52;;;;;;;13.23;7.20;;;31.30;46.30;;;;;;5032378;28;20056;-71
2021/07/24 12:56:18;;;;;;;10.65;6.88;;;31.30;46.20;;;;;;5061593;28;20040;-72
2021/07/24 13:01:44;;;;;;;13.15;7.60;;;31.40;47.00;;;;;;5032567;28;20402;-72
2021/07/24 13:04:17;;;;;;;11.35;7.10;;;31.40;46.80;;;;;;5064160;28;20042;-71
2021/07/24 13:07:25;;;;;;;;;;;;;;;;;;;;;
2021/07/24 13:10:35;;;;;;;11.15;7.88;;;31.50;46.50;;;;;;5057161;28;20036;-72